sensor_id;sensor_type;location;lat;lon;timestamp;pressure;altitude;pressure_sealevel;temperature;humidity
6389;BME280;3227;42.654;23.360;2023-04-28T00:00:55;94656.53;;;9.65;47.53
6389;BME280;3227;42.654;23.360;2023-04-28T00:03:21;94651.41;;;9.60;48.07
6389;BME280;3227;42.654;23.360;2023-04-28T00:05:48;94646.19;;;9.48;48.18
6389;BME280;3227;42.654;23.360;2023-04-28T00:08:15;94657.28;;;9.45;48.11
6389;BME280;3227;42.654;23.360;2023-04-28T00:10:43;94657.31;;;9.47;48.47
6389;BME280;3227;42.654;23.360;2023-04-28T00:13:10;94643.63;;;9.42;48.04
6389;BME280;3227;42.654;23.360;2023-04-28T00:15:37;94646.97;;;9.35;48.50
6389;BME280;3227;42.654;23.360;2023-04-28T00:18:04;94664.81;;;9.21;48.58
6389;BME280;3227;42.654;23.360;2023-04-28T00:20:31;94659.63;;;9.13;49.20
6389;BME280;3227;42.654;23.360;2023-04-28T00:22:57;94661.41;;;9.25;49.16
6389;BME280;3227;42.654;23.360;2023-04-28T00:25:24;94662.28;;;9.29;48.89
6389;BME280;3227;42.654;23.360;2023-04-28T00:27:52;94655.31;;;9.09;49.10
6389;BME280;3227;42.654;23.360;2023-04-28T00:30:19;94655.38;;;9.15;49.58
6389;BME280;3227;42.654;23.360;2023-04-28T00:32:46;94661.34;;;9.16;49.23
6389;BME280;3227;42.654;23.360;2023-04-28T00:35:13;94666.50;;;9.25;49.44
6389;BME280;3227;42.654;23.360;2023-04-28T00:37:39;94662.22;;;9.20;49.76
6389;BME280;3227;42.654;23.360;2023-04-28T00:40:07;94633.16;;;9.08;51.95
6389;BME280;3227;42.654;23.360;2023-04-28T00:42:34;94675.00;;;9.20;49.33
6389;BME280;3227;42.654;23.360;2023-04-28T00:45:02;94672.41;;;9.16;49.53
6389;BME280;3227;42.654;23.360;2023-04-28T00:47:31;94663.06;;;9.19;49.83
6389;BME280;3227;42.654;23.360;2023-04-28T00:49:59;94658.78;;;9.16;49.47
6389;BME280;3227;42.654;23.360;2023-04-28T00:52:26;94668.13;;;9.12;49.33
6389;BME280;3227;42.654;23.360;2023-04-28T00:54:53;94666.34;;;9.01;48.97
6389;BME280;3227;42.654;23.360;2023-04-28T00:57:21;94665.28;;;8.76;50.51
6389;BME280;3227;42.654;23.360;2023-04-28T00:59:48;94634.53;;;8.67;50.47
6389;BME280;3227;42.654;23.360;2023-04-28T01:02:16;94634.44;;;8.58;50.35
6389;BME280;3227;42.654;23.360;2023-04-28T01:04:43;94676.31;;;8.70;50.47
6389;BME280;3227;42.654;23.360;2023-04-28T01:07:10;94671.28;;;8.80;51.13
6389;BME280;3227;42.654;23.360;2023-04-28T01:09:37;94674.69;;;8.82;50.62
6389;BME280;3227;42.654;23.360;2023-04-28T01:12:04;94662.59;;;8.62;50.63
6389;BME280;3227;42.654;23.360;2023-04-28T01:14:32;94678.78;;;8.66;51.00
6389;BME280;3227;42.654;23.360;2023-04-28T01:16:59;94683.03;;;8.65;50.76
6389;BME280;3227;42.654;23.360;2023-04-28T01:19:27;94672.59;;;8.41;50.80
6389;BME280;3227;42.654;23.360;2023-04-28T01:21:54;94680.22;;;8.36;51.00
6389;BME280;3227;42.654;23.360;2023-04-28T01:24:22;94680.31;;;8.46;51.40
6389;BME280;3227;42.654;23.360;2023-04-28T01:26:49;94676.94;;;8.50;51.51
6389;BME280;3227;42.654;23.360;2023-04-28T01:29:16;94679.56;;;8.56;50.94
6389;BME280;3227;42.654;23.360;2023-04-28T01:31:42;94683.03;;;8.65;50.81
6389;BME280;3227;42.654;23.360;2023-04-28T01:34:09;94688.13;;;8.61;50.42
6389;BME280;3227;42.654;23.360;2023-04-28T01:36:36;94686.28;;;8.49;50.49
6389;BME280;3227;42.654;23.360;2023-04-28T01:39:03;94690.59;;;8.52;51.11
6389;BME280;3227;42.654;23.360;2023-04-28T01:41:31;94684.66;;;8.57;50.81
6389;BME280;3227;42.654;23.360;2023-04-28T01:43:59;94680.41;;;8.55;50.78
6389;BME280;3227;42.654;23.360;2023-04-28T01:46:26;94680.41;;;8.55;50.66
6389;BME280;3227;42.654;23.360;2023-04-28T01:48:53;94680.47;;;8.61;50.53
6389;BME280;3227;42.654;23.360;2023-04-28T01:51:19;94676.13;;;8.52;50.70
6389;BME280;3227;42.654;23.360;2023-04-28T01:53:46;94682.13;;;8.56;49.95
6389;BME280;3227;42.654;23.360;2023-04-28T01:56:13;94676.09;;;8.51;50.46
6389;BME280;3227;42.654;23.360;2023-04-28T01:58:41;94690.59;;;8.52;50.54
6389;BME280;3227;42.654;23.360;2023-04-28T02:01:08;94682.94;;;8.53;50.07
6389;BME280;3227;42.654;23.360;2023-04-28T02:03:34;94687.06;;;8.40;50.56
6389;BME280;3227;42.654;23.360;2023-04-28T02:06:01;94683.72;;;8.45;50.13
6389;BME280;3227;42.654;23.360;2023-04-28T02:08:28;94685.31;;;8.36;50.82
6389;BME280;3227;42.654;23.360;2023-04-28T02:10:55;94672.38;;;8.21;50.61
6389;BME280;3227;42.654;23.360;2023-04-28T02:13:22;94678.31;;;8.20;50.80
6389;BME280;3227;42.654;23.360;2023-04-28T02:15:50;94691.19;;;8.29;50.61
6389;BME280;3227;42.654;23.360;2023-04-28T02:18:17;94684.25;;;8.19;50.77
6389;BME280;3227;42.654;23.360;2023-04-28T02:20:43;94691.06;;;8.20;51.58
6389;BME280;3227;42.654;23.360;2023-04-28T02:23:10;94689.38;;;8.24;51.06
6389;BME280;3227;42.654;23.360;2023-04-28T02:25:37;94697.09;;;8.27;50.38
6389;BME280;3227;42.654;23.360;2023-04-28T02:28:04;94695.41;;;8.27;50.69
6389;BME280;3227;42.654;23.360;2023-04-28T02:30:30;94695.34;;;8.24;51.03
6389;BME280;3227;42.654;23.360;2023-04-28T02:32:59;94699.47;;;8.12;51.82
6389;BME280;3227;42.654;23.360;2023-04-28T02:35:25;94697.81;;;8.14;51.89
6389;BME280;3227;42.654;23.360;2023-04-28T02:37:52;94708.03;;;8.15;51.67
6389;BME280;3227;42.654;23.360;2023-04-28T02:40:19;94699.56;;;8.19;51.85
6389;BME280;3227;42.654;23.360;2023-04-28T02:42:46;94699.63;;;8.25;51.38
6389;BME280;3227;42.654;23.360;2023-04-28T02:45:13;94706.53;;;8.32;51.39
6389;BME280;3227;42.654;23.360;2023-04-28T02:47:39;94702.16;;;8.25;51.38
6389;BME280;3227;42.654;23.360;2023-04-28T02:50:09;94710.75;;;8.30;51.28
6389;BME280;3227;42.654;23.360;2023-04-28T02:52:36;94706.53;;;8.31;50.91
6389;BME280;3227;42.654;23.360;2023-04-28T02:55:03;94712.44;;;8.28;51.15
6389;BME280;3227;42.654;23.360;2023-04-28T02:57:30;94717.50;;;8.27;51.53
6389;BME280;3227;42.654;23.360;2023-04-28T02:59:57;94699.50;;;8.16;51.46
6389;BME280;3227;42.654;23.360;2023-04-28T03:02:23;94713.19;;;8.20;51.48
6389;BME280;3227;42.654;23.360;2023-04-28T03:04:50;94705.53;;;8.21;51.08
6389;BME280;3227;42.654;23.360;2023-04-28T03:07:18;94706.22;;;8.07;51.40
6389;BME280;3227;42.654;23.360;2023-04-28T03:09:45;94715.69;;;8.15;51.26
6389;BME280;3227;42.654;23.360;2023-04-28T03:12:13;94711.22;;;7.99;51.74
6389;BME280;3227;42.654;23.360;2023-04-28T03:14:39;94721.44;;;7.97;51.92
6389;BME280;3227;42.654;23.360;2023-04-28T03:17:06;94722.28;;;7.98;51.59
6389;BME280;3227;42.654;23.360;2023-04-28T03:19:33;94723.91;;;7.93;52.54
6389;BME280;3227;42.654;23.360;2023-04-28T03:22:00;94722.94;;;7.85;52.39
6389;BME280;3227;42.654;23.360;2023-04-28T03:24:28;94728.88;;;7.82;52.70
6389;BME280;3227;42.654;23.360;2023-04-28T03:26:55;94710.97;;;7.79;51.83
6389;BME280;3227;42.654;23.360;2023-04-28T03:29:22;94738.53;;;8.05;51.87
6389;BME280;3227;42.654;23.360;2023-04-28T03:31:50;94741.97;;;8.07;52.21
6389;BME280;3227;42.654;23.360;2023-04-28T03:34:17;94742.78;;;8.07;51.12
6389;BME280;3227;42.654;23.360;2023-04-28T03:36:43;94745.56;;;8.22;50.55
6389;BME280;3227;42.654;23.360;2023-04-28T03:39:10;94755.31;;;8.54;50.48
6389;BME280;3227;42.654;23.360;2023-04-28T03:41:38;94758.38;;;9.04;48.92
6389;BME280;3227;42.654;23.360;2023-04-28T03:44:05;94757.94;;;9.52;47.38
6389;BME280;3227;42.654;23.360;2023-04-28T03:46:32;94765.09;;;10.02;46.01
6389;BME280;3227;42.654;23.360;2023-04-28T03:48:59;94757.66;;;10.49;44.52
6389;BME280;3227;42.654;23.360;2023-04-28T03:51:27;94747.50;;;10.81;43.73
6389;BME280;3227;42.654;23.360;2023-04-28T03:53:54;94743.28;;;10.95;41.98
6389;BME280;3227;42.654;23.360;2023-04-28T03:56:21;94771.53;;;11.40;41.83
6389;BME280;3227;42.654;23.360;2023-04-28T03:58:49;94768.13;;;11.81;40.57
6389;BME280;3227;42.654;23.360;2023-04-28T04:01:16;94778.31;;;12.19;39.97
6389;BME280;3227;42.654;23.360;2023-04-28T04:03:43;94780.78;;;12.57;39.48
6389;BME280;3227;42.654;23.360;2023-04-28T04:06:09;94784.94;;;12.85;38.35
6389;BME280;3227;42.654;23.360;2023-04-28T04:08:36;94783.88;;;13.30;36.82
6389;BME280;3227;42.654;23.360;2023-04-28T04:11:03;94793.25;;;13.36;36.78
6389;BME280;3227;42.654;23.360;2023-04-28T04:13:30;94788.84;;;13.55;36.65
6389;BME280;3227;42.654;23.360;2023-04-28T04:15:58;94795.47;;;13.85;36.32
6389;BME280;3227;42.654;23.360;2023-04-28T04:18:25;94792.72;;;14.01;35.30
6389;BME280;3227;42.654;23.360;2023-04-28T04:20:52;94799.53;;;14.08;35.31
6389;BME280;3227;42.654;23.360;2023-04-28T04:23:20;94786.53;;;14.24;34.83
6389;BME280;3227;42.654;23.360;2023-04-28T04:25:47;94802.56;;;14.52;34.67
6389;BME280;3227;42.654;23.360;2023-04-28T04:28:14;94797.22;;;14.70;34.23
6389;BME280;3227;42.654;23.360;2023-04-28T04:30:41;94769.91;;;14.51;33.85
6389;BME280;3227;42.654;23.360;2023-04-28T04:33:09;94772.28;;;14.69;33.67
6389;BME280;3227;42.654;23.360;2023-04-28T04:35:36;94811.28;;;15.15;33.48
6389;BME280;3227;42.654;23.360;2023-04-28T04:38:03;94809.38;;;15.28;33.39
6389;BME280;3227;42.654;23.360;2023-04-28T04:40:29;94813.56;;;15.38;32.94
6389;BME280;3227;42.654;23.360;2023-04-28T04:42:56;94806.38;;;15.58;32.20
6389;BME280;3227;42.654;23.360;2023-04-28T04:45:23;94810.69;;;15.57;32.45
6389;BME280;3227;42.654;23.360;2023-04-28T04:47:50;94813.81;;;15.81;32.72
6389;BME280;3227;42.654;23.360;2023-04-28T04:50:18;94815.31;;;15.94;31.72
6389;BME280;3227;42.654;23.360;2023-04-28T04:52:45;94823.56;;;16.14;32.02
6389;BME280;3227;42.654;23.360;2023-04-28T04:55:12;94826.47;;;16.47;32.47
6389;BME280;3227;42.654;23.360;2023-04-28T04:57:39;94833.06;;;16.64;31.30
6389;BME280;3227;42.654;23.360;2023-04-28T05:00:07;94823.78;;;16.53;31.03
6389;BME280;3227;42.654;23.360;2023-04-28T05:02:34;94831.38;;;16.60;31.43
6389;BME280;3227;42.654;23.360;2023-04-28T05:05:00;94837.16;;;16.76;32.26
6389;BME280;3227;42.654;23.360;2023-04-28T05:07:28;94833.00;;;16.67;30.97
6389;BME280;3227;42.654;23.360;2023-04-28T05:09:55;94833.13;;;16.58;32.15
6389;BME280;3227;42.654;23.360;2023-04-28T05:12:22;94834.25;;;16.45;30.68
6389;BME280;3227;42.654;23.360;2023-04-28T05:14:49;94841.59;;;16.19;30.73
6389;BME280;3227;42.654;23.360;2023-04-28T05:17:16;94845.19;;;16.10;31.49
6389;BME280;3227;42.654;23.360;2023-04-28T05:19:42;94829.84;;;16.01;31.55
6389;BME280;3227;42.654;23.360;2023-04-28T05:22:10;94842.59;;;16.10;32.12
6389;BME280;3227;42.654;23.360;2023-04-28T05:24:38;94837.28;;;16.19;31.87
6389;BME280;3227;42.654;23.360;2023-04-28T05:27:05;94837.00;;;16.36;31.79
6389;BME280;3227;42.654;23.360;2023-04-28T05:29:31;94833.41;;;16.43;31.11
6389;BME280;3227;42.654;23.360;2023-04-28T05:31:59;94829.78;;;16.04;31.27
6389;BME280;3227;42.654;23.360;2023-04-28T05:34:26;94841.38;;;15.80;31.92
6389;BME280;3227;42.654;23.360;2023-04-28T05:36:52;94836.06;;;15.89;32.67
6389;BME280;3227;42.654;23.360;2023-04-28T05:39:19;94841.28;;;15.86;32.27
6389;BME280;3227;42.654;23.360;2023-04-28T05:41:47;94833.09;;;15.57;32.53
6389;BME280;3227;42.654;23.360;2023-04-28T05:44:14;94786.25;;;15.20;33.79
6389;BME280;3227;42.654;23.360;2023-04-28T05:46:41;94831.34;;;15.59;33.96
6389;BME280;3227;42.654;23.360;2023-04-28T05:49:09;94836.47;;;15.64;34.49
6389;BME280;3227;42.654;23.360;2023-04-28T05:51:36;94835.84;;;16.02;36.06
6389;BME280;3227;42.654;23.360;2023-04-28T05:54:03;94804.16;;;15.90;33.53
6389;BME280;3227;42.654;23.360;2023-04-28T05:56:29;94838.06;;;16.23;33.57
6389;BME280;3227;42.654;23.360;2023-04-28T05:58:58;94842.91;;;16.43;32.87
6389;BME280;3227;42.654;23.360;2023-04-28T06:01:28;94836.88;;;16.42;32.91
6389;BME280;3227;42.654;23.360;2023-04-28T06:03:55;94847.91;;;16.53;32.49
6389;BME280;3227;42.654;23.360;2023-04-28T06:06:22;94847.03;;;16.54;32.84
6389;BME280;3227;42.654;23.360;2023-04-28T06:08:49;94848.81;;;16.49;32.53
6389;BME280;3227;42.654;23.360;2023-04-28T06:11:16;94845.09;;;16.15;32.92
6389;BME280;3227;42.654;23.360;2023-04-28T06:13:46;94849.91;;;15.85;32.93
6389;BME280;3227;42.654;23.360;2023-04-28T06:16:14;94836.22;;;15.80;33.43
6389;BME280;3227;42.654;23.360;2023-04-28T06:18:41;94835.25;;;15.84;32.71
6389;BME280;3227;42.654;23.360;2023-04-28T06:21:08;94835.50;;;15.71;32.63
6389;BME280;3227;42.654;23.360;2023-04-28T06:23:35;94846.91;;;15.53;32.44
6389;BME280;3227;42.654;23.360;2023-04-28T06:26:04;94850.69;;;15.29;33.23
6389;BME280;3227;42.654;23.360;2023-04-28T06:28:31;94837.13;;;15.13;32.65
6389;BME280;3227;42.654;23.360;2023-04-28T06:30:58;94852.63;;;15.10;33.85
6389;BME280;3227;42.654;23.360;2023-04-28T06:33:26;94851.69;;;15.16;33.14
6389;BME280;3227;42.654;23.360;2023-04-28T06:35:53;94853.00;;;14.78;33.13
6389;BME280;3227;42.654;23.360;2023-04-28T06:38:20;94837.78;;;14.54;33.43
6389;BME280;3227;42.654;23.360;2023-04-28T06:40:47;94846.19;;;14.73;34.89
6389;BME280;3227;42.654;23.360;2023-04-28T06:43:14;94844.22;;;14.96;34.36
6389;BME280;3227;42.654;23.360;2023-04-28T06:45:40;94840.38;;;15.26;33.58
6389;BME280;3227;42.654;23.360;2023-04-28T06:48:07;94843.78;;;15.30;32.56
6389;BME280;3227;42.654;23.360;2023-04-28T06:50:36;94836.19;;;15.17;32.88
6389;BME280;3227;42.654;23.360;2023-04-28T06:53:02;94836.47;;;14.95;33.17
6389;BME280;3227;42.654;23.360;2023-04-28T06:55:29;94827.09;;;14.89;33.09
6389;BME280;3227;42.654;23.360;2023-04-28T06:57:56;94833.09;;;14.90;33.38
6389;BME280;3227;42.654;23.360;2023-04-28T07:00:23;94844.56;;;14.66;33.64
6389;BME280;3227;42.654;23.360;2023-04-28T07:02:50;94831.84;;;14.49;33.77
6389;BME280;3227;42.654;23.360;2023-04-28T07:05:17;94838.50;;;14.67;34.05
6389;BME280;3227;42.654;23.360;2023-04-28T07:07:46;94784.41;;;14.64;33.32
6389;BME280;3227;42.654;23.360;2023-04-28T07:10:13;94841.56;;;15.01;33.57
6389;BME280;3227;42.654;23.360;2023-04-28T07:12:40;94850.06;;;15.09;32.59
6389;BME280;3227;42.654;23.360;2023-04-28T07:15:07;94832.94;;;15.03;32.42
6389;BME280;3227;42.654;23.360;2023-04-28T07:17:34;94840.56;;;15.12;33.44
6389;BME280;3227;42.654;23.360;2023-04-28T07:20:01;94829.88;;;15.40;33.62
6389;BME280;3227;42.654;23.360;2023-04-28T07:22:29;94840.91;;;15.49;34.16
6389;BME280;3227;42.654;23.360;2023-04-28T07:24:57;94836.47;;;15.62;32.80
6389;BME280;3227;42.654;23.360;2023-04-28T07:27:24;94829.69;;;15.55;33.27
6389;BME280;3227;42.654;23.360;2023-04-28T07:29:51;94833.09;;;15.57;33.04
6389;BME280;3227;42.654;23.360;2023-04-28T07:32:18;94829.22;;;15.85;32.92
6389;BME280;3227;42.654;23.360;2023-04-28T07:34:45;94830.09;;;15.86;31.81
6389;BME280;3227;42.654;23.360;2023-04-28T07:37:11;94827.47;;;15.87;32.70
6389;BME280;3227;42.654;23.360;2023-04-28T07:39:38;94825.63;;;15.95;32.66
6389;BME280;3227;42.654;23.360;2023-04-28T07:42:09;94828.63;;;16.22;32.02
6389;BME280;3227;42.654;23.360;2023-04-28T07:44:36;94831.94;;;16.30;30.93
6389;BME280;3227;42.654;23.360;2023-04-28T07:47:03;94836.00;;;15.91;31.90
6389;BME280;3227;42.654;23.360;2023-04-28T07:49:30;94831.66;;;15.96;32.57
6389;BME280;3227;42.654;23.360;2023-04-28T07:51:57;94832.13;;;16.19;32.37
6389;BME280;3227;42.654;23.360;2023-04-28T07:54:24;94830.06;;;16.38;31.60
6389;BME280;3227;42.654;23.360;2023-04-28T07:56:51;94832.91;;;16.23;32.31
6389;BME280;3227;42.654;23.360;2023-04-28T07:59:24;94829.38;;;16.28;33.06
6389;BME280;3227;42.654;23.360;2023-04-28T08:01:51;94787.16;;;15.77;31.46
6389;BME280;3227;42.654;23.360;2023-04-28T08:04:17;94838.28;;;16.11;32.64
6389;BME280;3227;42.654;23.360;2023-04-28T08:06:44;94827.09;;;16.12;31.10
6389;BME280;3227;42.654;23.360;2023-04-28T08:09:11;94826.94;;;16.21;31.60
6389;BME280;3227;42.654;23.360;2023-04-28T08:11:38;94827.66;;;16.27;31.77
6389;BME280;3227;42.654;23.360;2023-04-28T08:14:05;94828.69;;;16.19;31.72
6389;BME280;3227;42.654;23.360;2023-04-28T08:16:33;94823.06;;;16.43;31.26
6389;BME280;3227;42.654;23.360;2023-04-28T08:19:03;94829.38;;;16.28;31.75
6389;BME280;3227;42.654;23.360;2023-04-28T08:21:29;94819.78;;;16.35;31.58
6389;BME280;3227;42.654;23.360;2023-04-28T08:23:57;94824.19;;;16.30;30.96
6389;BME280;3227;42.654;23.360;2023-04-28T08:26:24;94821.50;;;16.34;31.75
6389;BME280;3227;42.654;23.360;2023-04-28T08:28:50;94827.44;;;16.40;31.55
6389;BME280;3227;42.654;23.360;2023-04-28T08:31:18;94821.81;;;16.65;30.81
6389;BME280;3227;42.654;23.360;2023-04-28T08:33:46;94825.06;;;16.78;30.98
6389;BME280;3227;42.654;23.360;2023-04-28T08:36:15;94824.94;;;16.83;31.31
6389;BME280;3227;42.654;23.360;2023-04-28T08:38:42;94767.75;;;16.50;30.40
6389;BME280;3227;42.654;23.360;2023-04-28T08:41:09;94770.50;;;16.43;30.88
6389;BME280;3227;42.654;23.360;2023-04-28T08:43:38;94820.72;;;16.79;29.52
6389;BME280;3227;42.654;23.360;2023-04-28T08:46:08;94816.06;;;16.48;28.92
6389;BME280;3227;42.654;23.360;2023-04-28T08:48:39;94807.66;;;16.39;30.85
6389;BME280;3227;42.654;23.360;2023-04-28T08:51:08;94808.41;;;16.45;30.99
6389;BME280;3227;42.654;23.360;2023-04-28T08:53:43;94807.13;;;16.67;30.76
6389;BME280;3227;42.654;23.360;2023-04-28T08:56:10;94795.53;;;16.88;30.62
6389;BME280;3227;42.654;23.360;2023-04-28T08:58:39;94802.09;;;17.04;31.02
6389;BME280;3227;42.654;23.360;2023-04-28T09:01:06;94802.84;;;17.09;30.41
6389;BME280;3227;42.654;23.360;2023-04-28T09:03:33;94804.88;;;16.95;30.65
6389;BME280;3227;42.654;23.360;2023-04-28T09:06:01;94802.34;;;16.91;30.83
6389;BME280;3227;42.654;23.360;2023-04-28T09:08:29;94794.66;;;16.88;31.42
6389;BME280;3227;42.654;23.360;2023-04-28T09:11:06;94789.44;;;16.89;31.48
6389;BME280;3227;42.654;23.360;2023-04-28T09:13:34;94788.13;;;16.70;30.74
6389;BME280;3227;42.654;23.360;2023-04-28T09:16:01;94780.72;;;16.49;31.44
6389;BME280;3227;42.654;23.360;2023-04-28T09:18:28;94748.22;;;15.89;31.06
6389;BME280;3227;42.654;23.360;2023-04-28T09:21:04;94771.47;;;15.88;32.31
6389;BME280;3227;42.654;23.360;2023-04-28T09:23:33;94776.44;;;16.00;31.30
6389;BME280;3227;42.654;23.360;2023-04-28T09:26:01;94765.38;;;15.90;31.83
6389;BME280;3227;42.654;23.360;2023-04-28T09:28:29;94775.94;;;15.78;31.65
6389;BME280;3227;42.654;23.360;2023-04-28T09:30:56;94768.81;;;15.92;32.00
6389;BME280;3227;42.654;23.360;2023-04-28T09:33:23;94775.72;;;15.92;31.16
6389;BME280;3227;42.654;23.360;2023-04-28T09:35:50;94769.94;;;15.76;32.32
6389;BME280;3227;42.654;23.360;2023-04-28T09:38:18;94754.19;;;15.90;31.17
6389;BME280;3227;42.654;23.360;2023-04-28T09:40:56;94754.97;;;15.96;31.77
6389;BME280;3227;42.654;23.360;2023-04-28T09:43:28;94754.47;;;16.24;33.17
6389;BME280;3227;42.654;23.360;2023-04-28T09:45:56;94745.50;;;16.43;31.22
6389;BME280;3227;42.654;23.360;2023-04-28T09:48:28;94743.38;;;16.17;30.88
6389;BME280;3227;42.654;23.360;2023-04-28T09:50:55;94748.69;;;16.10;31.02
6389;BME280;3227;42.654;23.360;2023-04-28T09:53:24;94701.13;;;15.72;30.83
6389;BME280;3227;42.654;23.360;2023-04-28T09:55:51;94742.13;;;15.90;32.38
6389;BME280;3227;42.654;23.360;2023-04-28T09:58:21;94740.97;;;16.07;32.22
6389;BME280;3227;42.654;23.360;2023-04-28T10:00:51;94732.22;;;16.15;30.02
6389;BME280;3227;42.654;23.360;2023-04-28T10:03:20;94742.69;;;16.08;30.76
6389;BME280;3227;42.654;23.360;2023-04-28T10:05:47;94735.59;;;16.19;30.70
6389;BME280;3227;42.654;23.360;2023-04-28T10:08:15;94718.56;;;16.09;29.52
6389;BME280;3227;42.654;23.360;2023-04-28T10:10:44;94723.69;;;16.12;30.92
6389;BME280;3227;42.654;23.360;2023-04-28T10:13:14;94723.28;;;16.31;29.96
6389;BME280;3227;42.654;23.360;2023-04-28T10:15:42;94712.06;;;16.32;29.58
6389;BME280;3227;42.654;23.360;2023-04-28T10:18:10;94721.34;;;16.44;29.48
6389;BME280;3227;42.654;23.360;2023-04-28T10:20:37;94720.31;;;16.53;31.20
6389;BME280;3227;42.654;23.360;2023-04-28T10:23:19;94721.97;;;16.55;29.80
6389;BME280;3227;42.654;23.360;2023-04-28T10:25:53;94712.84;;;16.38;29.94
6389;BME280;3227;42.654;23.360;2023-04-28T10:28:21;94714.28;;;16.52;30.60
6389;BME280;3227;42.654;23.360;2023-04-28T10:31:10;94724.75;;;16.46;30.38
6389;BME280;3227;42.654;23.360;2023-04-28T10:33:38;94710.25;;;16.38;29.89
6389;BME280;3227;42.654;23.360;2023-04-28T10:36:05;94709.31;;;16.40;29.88
6389;BME280;3227;42.654;23.360;2023-04-28T10:38:33;94704.09;;;16.43;29.83
6389;BME280;3227;42.654;23.360;2023-04-28T10:41:00;94671.63;;;16.30;30.37
6389;BME280;3227;42.654;23.360;2023-04-28T10:43:37;94698.69;;;16.55;29.01
6389;BME280;3227;42.654;23.360;2023-04-28T10:46:06;94656.91;;;16.32;30.83
6389;BME280;3227;42.654;23.360;2023-04-28T10:48:54;94694.31;;;16.59;29.38
6389;BME280;3227;42.654;23.360;2023-04-28T10:51:28;94691.19;;;16.42;29.23
6389;BME280;3227;42.654;23.360;2023-04-28T10:54:16;94685.31;;;16.35;29.49
6389;BME280;3227;42.654;23.360;2023-04-28T10:57:17;94681.88;;;16.34;30.12
6389;BME280;3227;42.654;23.360;2023-04-28T11:00:27;94679.31;;;15.88;28.03
6389;BME280;3227;42.654;23.360;2023-04-28T11:02:55;94624.63;;;15.11;28.93
6389;BME280;3227;42.654;23.360;2023-04-28T11:05:24;94675.53;;;15.00;29.17
6389;BME280;3227;42.654;23.360;2023-04-28T11:11:17;94674.31;;;15.24;29.83
6389;BME280;3227;42.654;23.360;2023-04-28T11:13:45;94673.22;;;14.83;30.00
6389;BME280;3227;42.654;23.360;2023-04-28T11:16:19;94672.59;;;14.66;30.36
6389;BME280;3227;42.654;23.360;2023-04-28T11:18:56;94660.53;;;14.70;31.05
6389;BME280;3227;42.654;23.360;2023-04-28T11:21:25;94661.94;;;14.91;29.75
6389;BME280;3227;42.654;23.360;2023-04-28T11:23:53;94652.91;;;15.17;30.79
6389;BME280;3227;42.654;23.360;2023-04-28T11:26:20;94655.72;;;15.57;30.87
6389;BME280;3227;42.654;23.360;2023-04-28T11:28:50;94647.19;;;16.00;30.72
6389;BME280;3227;42.654;23.360;2023-04-28T11:31:18;94656.34;;;16.18;29.56
6389;BME280;3227;42.654;23.360;2023-04-28T11:33:53;94647.56;;;16.25;28.99
6389;BME280;3227;42.654;23.360;2023-04-28T11:36:30;94645.09;;;16.20;28.32
6389;BME280;3227;42.654;23.360;2023-04-28T11:38:59;94647.88;;;16.10;27.83
6389;BME280;3227;42.654;23.360;2023-04-28T11:41:25;94646.81;;;15.75;27.44
6389;BME280;3227;42.654;23.360;2023-04-28T11:43:52;94633.56;;;15.43;27.85
6389;BME280;3227;42.654;23.360;2023-04-28T11:46:20;94637.28;;;15.27;28.68
6389;BME280;3227;42.654;23.360;2023-04-28T11:48:47;94633.41;;;15.52;29.01
6389;BME280;3227;42.654;23.360;2023-04-28T11:51:33;94631.81;;;15.94;28.51
6389;BME280;3227;42.654;23.360;2023-04-28T11:54:01;94618.75;;;16.02;27.47
6389;BME280;3227;42.654;23.360;2023-04-28T11:56:28;94636.34;;;16.26;27.30
6389;BME280;3227;42.654;23.360;2023-04-28T11:59:03;94629.75;;;16.13;27.02
6389;BME280;3227;42.654;23.360;2023-04-28T12:01:31;94622.16;;;16.04;27.25
6389;BME280;3227;42.654;23.360;2023-04-28T12:03:58;94622.47;;;15.88;26.40
6389;BME280;3227;42.654;23.360;2023-04-28T12:06:25;94626.94;;;15.79;27.07
6389;BME280;3227;42.654;23.360;2023-04-28T12:08:54;94625.03;;;15.88;27.85
6389;BME280;3227;42.654;23.360;2023-04-28T12:11:21;94619.09;;;15.83;27.25
6389;BME280;3227;42.654;23.360;2023-04-28T12:14:06;94613.94;;;15.82;27.53
6389;BME280;3227;42.654;23.360;2023-04-28T12:16:41;94610.25;;;15.96;28.57
6389;BME280;3227;42.654;23.360;2023-04-28T12:19:10;94607.03;;;16.27;28.28
6389;BME280;3227;42.654;23.360;2023-04-28T12:21:38;94597.75;;;16.57;28.44
6389;BME280;3227;42.654;23.360;2023-04-28T12:24:17;94557.50;;;16.45;27.33
6389;BME280;3227;42.654;23.360;2023-04-28T12:26:44;94594.63;;;16.83;27.84
6389;BME280;3227;42.654;23.360;2023-04-28T12:29:37;94595.75;;;17.08;27.99
6389;BME280;3227;42.654;23.360;2023-04-28T12:32:06;94587.47;;;17.29;26.57
6389;BME280;3227;42.654;23.360;2023-04-28T12:34:33;94585.41;;;17.42;27.19
6389;BME280;3227;42.654;23.360;2023-04-28T12:37:00;94498.59;;;16.95;26.71
6389;BME280;3227;42.654;23.360;2023-04-28T12:39:31;94577.66;;;17.40;27.97
6389;BME280;3227;42.654;23.360;2023-04-28T12:41:58;94582.03;;;17.38;28.51
6389;BME280;3227;42.654;23.360;2023-04-28T12:44:26;94580.03;;;17.49;28.62
6389;BME280;3227;42.654;23.360;2023-04-28T12:46:53;94518.78;;;17.15;28.87
6389;BME280;3227;42.654;23.360;2023-04-28T12:49:21;94568.66;;;17.55;28.57
6389;BME280;3227;42.654;23.360;2023-04-28T12:51:48;94576.91;;;17.71;28.29
6389;BME280;3227;42.654;23.360;2023-04-28T12:54:15;94559.25;;;17.85;28.38
6389;BME280;3227;42.654;23.360;2023-04-28T12:56:43;94513.50;;;17.52;27.73
6389;BME280;3227;42.654;23.360;2023-04-28T12:59:10;94561.00;;;17.84;27.64
6389;BME280;3227;42.654;23.360;2023-04-28T13:01:37;94556.72;;;17.82;27.83
6389;BME280;3227;42.654;23.360;2023-04-28T13:04:04;94560.84;;;17.89;27.36
6389;BME280;3227;42.654;23.360;2023-04-28T13:06:31;94546.81;;;17.96;27.89
6389;BME280;3227;42.654;23.360;2023-04-28T13:08:58;94533.16;;;17.91;26.74
6389;BME280;3227;42.654;23.360;2023-04-28T13:11:25;94549.56;;;17.92;27.68
6389;BME280;3227;42.654;23.360;2023-04-28T13:13:54;94540.22;;;17.86;28.53
6389;BME280;3227;42.654;23.360;2023-04-28T13:16:21;94541.09;;;17.85;27.26
6389;BME280;3227;42.654;23.360;2023-04-28T13:18:53;94540.22;;;17.86;27.37
6389;BME280;3227;42.654;23.360;2023-04-28T13:21:21;94535.91;;;17.85;27.58
6389;BME280;3227;42.654;23.360;2023-04-28T13:23:48;94538.50;;;17.85;28.31